createdAt,value
2022-10-28T00:04:02.229Z,4.73
2022-10-28T00:09:24.628Z,4.30
2022-10-28T00:14:46.916Z,4.97
2022-10-28T00:20:09.633Z,4.50
2022-10-28T00:25:32.041Z,4.77
2022-10-28T00:31:05.599Z,5.63
2022-10-28T00:36:34.480Z,4.77
2022-10-28T00:41:59.437Z,4.47
2022-10-28T00:47:27.628Z,4.50
2022-10-28T00:52:55.591Z,4.80
2022-10-28T00:58:21.120Z,4.50
2022-10-28T01:03:43.419Z,4.20
2022-10-28T01:09:05.945Z,3.87
2022-10-28T01:14:57.369Z,4.37
2022-10-28T01:20:19.933Z,4.10
2022-10-28T01:25:51.007Z,4.80
2022-10-28T01:31:22.399Z,4.27
2022-10-28T01:37:06.242Z,4.03
2022-10-28T01:42:31.332Z,4.57
2022-10-28T01:48:08.762Z,4.67
2022-10-28T01:53:35.993Z,4.80
2022-10-28T01:59:01.042Z,4.50
2022-10-28T02:04:23.408Z,4.37
2022-10-28T02:10:13.526Z,4.83
2022-10-28T02:15:42.104Z,4.53
2022-10-28T02:21:15.072Z,4.90
2022-10-28T02:26:41.989Z,5.77
2022-10-28T02:32:14.473Z,4.73
2022-10-28T02:37:39.891Z,5.13
2022-10-28T02:43:05.949Z,4.53
2022-10-28T02:48:34.038Z,5.17
2022-10-28T02:54:10.999Z,4.50
2022-10-28T02:59:33.491Z,4.10
2022-10-28T03:04:55.895Z,4.30
2022-10-28T03:10:18.004Z,4.70
2022-10-28T03:15:40.189Z,4.90
2022-10-28T03:21:02.272Z,4.80
2022-10-28T03:26:25.084Z,4.47
2022-10-28T03:31:47.227Z,4.57
2022-10-28T03:37:09.415Z,4.40
2022-10-28T03:42:34.514Z,4.57
2022-10-28T03:47:58.816Z,4.67
2022-10-28T03:53:23.577Z,5.00
2022-10-28T03:58:49.377Z,5.17
2022-10-28T04:04:11.533Z,5.33
2022-10-28T04:09:33.878Z,5.93
2022-10-28T04:14:56.092Z,5.13
2022-10-28T04:20:18.571Z,5.30
2022-10-28T04:25:40.600Z,5.13
2022-10-28T04:31:02.920Z,5.17
2022-10-28T04:36:25.148Z,4.87
2022-10-28T04:41:47.398Z,4.83
2022-10-28T04:47:10.012Z,4.10
2022-10-28T04:52:32.385Z,6.17
2022-10-28T04:58:00.056Z,4.97
2022-10-28T05:03:22.589Z,5.30
2022-10-28T05:08:45.081Z,4.90
2022-10-28T05:14:07.491Z,5.03
2022-10-28T05:19:29.574Z,5.30
2022-10-28T05:24:51.759Z,4.67
2022-10-28T05:30:14.636Z,5.67
2022-10-28T05:35:38.064Z,5.30
2022-10-28T05:41:01.894Z,5.30
2022-10-28T05:46:24.380Z,4.40
2022-10-28T05:51:47.275Z,4.63
2022-10-28T06:04:17.354Z,4.30
2022-10-28T06:09:39.892Z,5.40
2022-10-28T06:15:01.011Z,6.93
2022-10-28T06:20:23.727Z,6.60
2022-10-28T06:25:46.113Z,6.90
2022-10-28T06:31:08.354Z,5.87
2022-10-28T06:36:30.753Z,5.87
2022-10-28T06:41:53.193Z,6.23
2022-10-28T06:47:16.870Z,5.10
2022-10-28T06:52:39.356Z,5.37
2022-10-28T06:58:03.256Z,5.10
2022-10-28T07:03:25.611Z,6.30
2022-10-28T07:08:47.943Z,5.43
2022-10-28T07:14:10.940Z,5.90
2022-10-28T07:19:33.214Z,5.47
2022-10-28T07:24:55.794Z,4.93
2022-10-28T07:30:18.124Z,5.10
2022-10-28T07:35:40.325Z,5.43
2022-10-28T07:41:07.903Z,5.97
2022-10-28T07:46:30.199Z,5.63
2022-10-28T07:51:52.686Z,6.40
2022-10-28T07:57:15.127Z,6.83
2022-10-28T08:02:38.255Z,7.27
2022-10-28T08:08:00.675Z,7.23
2022-10-28T08:13:23.357Z,7.37
2022-10-28T08:18:48.991Z,6.90
2022-10-28T08:24:11.122Z,6.87
2022-10-28T08:29:33.484Z,5.00
2022-10-28T08:34:56.194Z,5.53
2022-10-28T08:40:25.352Z,5.20
2022-10-28T08:46:07.017Z,4.97
2022-10-28T08:51:42.493Z,4.80
2022-10-28T08:57:17.814Z,4.57
2022-10-28T09:03:01.994Z,4.77
2022-10-28T09:08:27.368Z,4.13
2022-10-28T09:14:34.891Z,4.47
2022-10-28T09:20:15.477Z,4.70
2022-10-28T09:26:07.045Z,4.33
2022-10-28T09:31:41.196Z,4.20
2022-10-28T09:37:12.744Z,4.60
2022-10-28T09:42:55.216Z,3.97
2022-10-28T09:48:25.670Z,3.88
2022-10-28T09:53:53.292Z,4.88
2022-10-28T09:59:16.528Z,3.65
2022-10-28T10:04:38.856Z,3.40
2022-10-28T10:10:06.348Z,3.58
2022-10-28T10:15:37.309Z,3.78
2022-10-28T10:21:00.538Z,3.85
2022-10-28T10:26:23.716Z,3.67
2022-10-28T10:31:47.951Z,3.58
2022-10-28T10:37:21.231Z,4.00
2022-10-28T10:42:57.361Z,3.45
2022-10-28T10:48:26.597Z,3.05
2022-10-28T10:53:52.046Z,3.70
2022-10-28T10:59:34.857Z,3.20
2022-10-28T11:05:01.418Z,3.35
2022-10-28T11:10:28.213Z,3.03
2022-10-28T11:16:01.330Z,3.08
2022-10-28T11:22:05.014Z,3.45
2022-10-28T11:27:57.639Z,3.58
2022-10-28T11:33:42.975Z,2.75
2022-10-28T11:39:27.964Z,3.03
2022-10-28T11:45:08.255Z,2.97
2022-10-28T11:51:04.936Z,3.03
2022-10-28T11:56:45.927Z,2.80
2022-10-28T12:02:30.340Z,3.03
2022-10-28T12:08:01.483Z,2.92
2022-10-28T12:13:48.758Z,3.00
2022-10-28T12:19:29.654Z,2.85
2022-10-28T12:24:53.673Z,2.65
2022-10-28T12:30:27.356Z,3.00
2022-10-28T12:35:58.658Z,2.80
2022-10-28T12:41:27.177Z,2.95
2022-10-28T12:47:07.509Z,2.90
2022-10-28T12:53:00.673Z,3.63
2022-10-28T12:58:32.322Z,2.78
2022-10-28T13:03:54.753Z,2.83
2022-10-28T13:09:39.255Z,3.22
2022-10-28T13:15:29.042Z,3.00
2022-10-28T13:21:10.785Z,2.50
2022-10-28T13:26:36.331Z,3.00
2022-10-28T13:31:58.867Z,3.20
2022-10-28T13:37:23.843Z,2.97
2022-10-28T13:42:48.136Z,2.88
2022-10-28T13:48:42.519Z,2.90
2022-10-28T13:54:04.812Z,2.67
2022-10-28T13:59:30.959Z,3.30
2022-10-28T14:04:59.425Z,2.90
2022-10-28T14:10:31.248Z,3.35
2022-10-28T14:16:20.030Z,3.00
2022-10-28T14:22:06.522Z,2.70
2022-10-28T14:27:31.072Z,2.80
2022-10-28T14:32:58.812Z,2.83
2022-10-28T14:38:55.154Z,2.88
2022-10-28T14:44:31.979Z,3.95
2022-10-28T14:50:14.494Z,3.03
2022-10-28T14:55:38.419Z,3.65
2022-10-28T15:01:16.636Z,4.13
2022-10-28T15:06:46.007Z,4.45
2022-10-28T15:12:10.535Z,3.53
2022-10-28T15:17:42.560Z,3.40
2022-10-28T15:23:22.018Z,3.70
2022-10-28T15:28:45.058Z,3.80
2022-10-28T15:34:20.750Z,3.97
2022-10-28T15:39:43.425Z,4.05
2022-10-28T15:45:06.882Z,3.70
2022-10-28T15:50:32.026Z,3.33
2022-10-28T15:56:26.145Z,3.92
2022-10-28T16:01:48.762Z,3.50
2022-10-28T16:07:11.566Z,3.67
2022-10-28T16:12:34.365Z,3.70
2022-10-28T16:17:57.317Z,3.85
2022-10-28T16:23:22.843Z,3.38
2022-10-28T16:28:45.470Z,3.30
2022-10-28T16:34:14.457Z,4.43
2022-10-28T16:39:36.806Z,4.35
2022-10-28T16:44:59.295Z,3.53
2022-10-28T16:50:21.476Z,3.58
2022-10-28T16:55:44.342Z,3.97
2022-10-28T17:01:07.108Z,4.30
2022-10-28T17:06:29.738Z,3.55
2022-10-28T17:11:52.258Z,3.97
2022-10-28T17:17:14.811Z,3.83
2022-10-28T17:22:39.609Z,4.37
2022-10-28T17:28:01.849Z,4.03
2022-10-28T17:33:24.283Z,4.60
2022-10-28T17:38:48.790Z,4.20
2022-10-28T17:44:11.136Z,4.40
2022-10-28T17:49:34.436Z,4.93
2022-10-28T17:54:56.878Z,4.50
2022-10-28T18:00:19.235Z,4.50
2022-10-28T18:05:41.482Z,4.10
2022-10-28T18:11:05.449Z,4.57
2022-10-28T18:16:28.364Z,5.17
2022-10-28T18:21:50.924Z,5.03
2022-10-28T18:27:13.454Z,4.50
2022-10-28T18:39:43.980Z,5.30
2022-10-28T18:45:07.178Z,4.33
2022-10-28T18:50:32.003Z,4.77
2022-10-28T18:55:59.478Z,4.60
2022-10-28T19:01:27.690Z,5.07
2022-10-28T19:06:50.691Z,4.60
2022-10-28T19:12:13.028Z,4.67
2022-10-28T19:17:35.331Z,4.60
2022-10-28T19:22:58.406Z,4.90
2022-10-28T19:28:21.283Z,4.60
2022-10-28T19:33:45.348Z,4.97
2022-10-28T19:39:07.763Z,4.33
2022-10-28T19:44:30.399Z,4.90
2022-10-28T19:49:52.675Z,5.50
2022-10-28T19:55:15.303Z,5.33
2022-10-28T20:00:37.530Z,5.10
2022-10-28T20:06:05.664Z,5.30
2022-10-28T20:11:31.933Z,4.53
2022-10-28T20:16:54.021Z,5.10
2022-10-28T20:22:17.336Z,5.20
2022-10-28T20:27:39.871Z,5.00
2022-10-28T20:33:02.336Z,4.60
2022-10-28T20:38:25.475Z,4.67
2022-10-28T20:43:50.842Z,5.13
2022-10-28T20:49:13.456Z,5.13
2022-10-28T20:54:35.629Z,4.60
2022-10-28T20:59:57.926Z,4.80
2022-10-28T21:05:20.272Z,4.77
2022-10-28T21:10:42.553Z,4.87
2022-10-28T21:16:06.222Z,4.87
2022-10-28T21:21:29.304Z,5.17
2022-10-28T21:26:52.236Z,5.10
2022-10-28T21:32:21.475Z,5.17
2022-10-28T21:37:43.647Z,4.87
2022-10-28T21:43:09.077Z,5.20
2022-10-28T21:48:32.744Z,5.97
2022-10-28T21:53:54.829Z,5.87
2022-10-28T21:59:17.251Z,5.10
2022-10-28T22:04:39.618Z,4.90
2022-10-28T22:10:01.965Z,5.07
2022-10-28T22:15:24.293Z,5.17
2022-10-28T22:20:46.878Z,5.37
2022-10-28T22:26:12.848Z,5.27
2022-10-28T22:31:35.175Z,4.67
2022-10-28T22:36:57.434Z,4.93
2022-10-28T22:42:19.801Z,5.00
2022-10-28T22:47:41.963Z,4.70
2022-10-28T22:53:04.522Z,4.97
2022-10-28T22:58:27.381Z,5.47
2022-10-28T23:03:51.488Z,5.70
2022-10-28T23:09:13.818Z,5.30
2022-10-28T23:14:36.273Z,5.23
2022-10-28T23:19:58.436Z,5.67
2022-10-28T23:25:20.799Z,5.57
2022-10-28T23:30:43.145Z,5.40
2022-10-28T23:36:06.152Z,5.10
2022-10-28T23:41:28.543Z,5.47
2022-10-28T23:46:50.669Z,5.00
2022-10-28T23:52:13.323Z,5.10
2022-10-28T23:57:35.583Z,5.43
